Time;durP1;ratioP1;P1;durP2;ratioP2;P2;SDS_P1;SDS_P2;PMS_P1;PMS_P2;Temp;Humidity;BMP_temperature;BMP_pressure;BME280_temperature;BME280_humidity;BME280_pressure;Samples;Min_cycle;Max_cycle;Signal;HPM_P1;HPM_P2
2022/10/20 00:01:30;;;;;;;12.73;11.63;;;23.10;99.90;;;;;;6015460;29;89127;-66
2022/10/20 00:04:32;;;;;;;12.40;11.30;;;23.10;99.90;;;;;;6015674;29;88376;-66
2022/10/20 00:07:34;;;;;;;12.52;11.43;;;23.10;99.90;;;;;;6014577;29;89180;-66
2022/10/20 00:10:36;;;;;;;13.30;12.10;;;23.10;99.90;;;;;;6014256;29;88084;-66
2022/10/20 00:13:39;;;;;;;12.65;11.55;;;23.10;99.90;;;;;;6014324;29;90090;-66
2022/10/20 00:16:42;;;;;;;12.35;11.25;;;23.10;99.90;;;;;;6013931;29;89480;-65
2022/10/20 00:19:47;;;;;;;12.23;11.13;;;23.10;99.90;;;;;;6013970;29;89442;-66
2022/10/20 00:22:49;;;;;;;12.50;11.30;;;23.10;99.90;;;;;;6015108;29;88045;-66
2022/10/20 00:26:01;;;;;;;12.90;11.70;;;23.10;99.90;;;;;;6013607;29;89192;-66
2022/10/20 00:29:04;;;;;;;12.57;11.48;;;23.00;99.90;;;;;;6017115;29;89215;-66
2022/10/20 00:32:07;;;;;;;12.05;10.95;;;23.00;99.90;;;;;;6023377;29;89446;-66
2022/10/20 00:35:09;;;;;;;12.18;11.07;;;23.00;99.90;;;;;;6015238;29;88317;-65
2022/10/20 00:38:11;;;;;;;12.23;11.13;;;23.00;99.90;;;;;;6016361;29;89142;-65
2022/10/20 00:41:15;;;;;;;12.27;11.18;;;23.00;99.90;;;;;;6014220;29;89106;-65
2022/10/20 00:44:50;;;;;;;11.50;10.50;;;23.00;99.90;;;;;;6014137;29;89992;-65
2022/10/20 00:47:55;;;;;;;11.82;10.73;;;23.00;99.90;;;;;;6026507;29;88092;-66
2022/10/20 00:50:58;;;;;;;11.98;10.88;;;23.00;99.90;;;;;;6017454;29;89125;-66
2022/10/20 00:54:06;;;;;;;11.95;10.85;;;23.00;99.90;;;;;;6014092;29;89114;-66
2022/10/20 00:57:08;;;;;;;11.32;10.32;;;23.10;99.90;;;;;;6012186;29;89216;-66
2022/10/20 01:00:11;;;;;;;12.23;11.13;;;23.00;99.90;;;;;;6021445;29;89158;-66
2022/10/20 01:03:20;;;;;;;12.40;11.30;;;23.00;99.90;;;;;;6022586;29;89083;-65
2022/10/20 01:06:23;;;;;;;11.80;10.80;;;23.00;99.90;;;;;;6014548;29;88791;-66
2022/10/20 01:09:25;;;;;;;11.43;10.43;;;23.00;99.90;;;;;;6013441;29;89253;-66
2022/10/20 01:12:34;;;;;;;11.15;10.15;;;23.00;99.90;;;;;;6012676;29;90592;-66
2022/10/20 01:15:44;;;;;;;11.65;10.65;;;23.00;99.90;;;;;;6013557;29;90153;-66
2022/10/20 01:18:55;;;;;;;12.50;11.40;;;23.00;99.90;;;;;;6013338;29;89101;-66
2022/10/20 01:22:16;;;;;;;11.50;10.50;;;23.00;99.90;;;;;;6013401;29;89194;-66
2022/10/20 01:25:25;;;;;;;12.25;11.15;;;23.00;99.90;;;;;;6009167;29;89079;-66
2022/10/20 01:28:34;;;;;;;12.05;10.85;;;23.00;99.90;;;;;;6013266;29;89091;-66
2022/10/20 01:31:42;;;;;;;12.05;10.95;;;23.00;99.90;;;;;;6013633;29;88487;-66
2022/10/20 01:34:51;;;;;;;12.07;10.90;;;23.00;99.90;;;;;;6011853;29;89585;-66
2022/10/20 01:38:01;;;;;;;13.20;11.73;;;23.00;99.90;;;;;;6024832;29;88395;-65
2022/10/20 01:41:10;;;;;;;12.05;10.95;;;23.00;99.90;;;;;;6013706;29;89059;-66
2022/10/20 01:44:17;;;;;;;12.27;11.07;;;23.00;99.90;;;;;;6013062;29;89477;-66
2022/10/20 01:47:21;;;;;;;11.98;10.88;;;23.00;99.90;;;;;;6011987;29;90456;-66
2022/10/20 01:50:24;;;;;;;11.82;10.82;;;23.00;99.90;;;;;;6023322;29;88194;-66
2022/10/20 01:53:27;;;;;;;12.20;11.00;;;23.00;99.90;;;;;;6014143;29;89239;-66
2022/10/20 01:56:39;;;;;;;12.20;11.10;;;22.90;99.90;;;;;;6011522;29;89142;-66
2022/10/20 01:59:54;;;;;;;12.15;11.00;;;22.90;99.90;;;;;;6019544;28;89454;-66
2022/10/20 02:03:13;;;;;;;11.52;10.52;;;23.00;99.90;;;;;;6014296;29;89125;-66
2022/10/20 02:06:24;;;;;;;12.00;10.90;;;23.00;99.90;;;;;;6011750;29;88897;-66
2022/10/20 02:09:34;;;;;;;12.13;10.95;;;22.90;99.90;;;;;;6013237;29;88400;-66
2022/10/20 02:12:40;;;;;;;11.52;10.52;;;22.90;99.90;;;;;;6012293;29;88079;-66
2022/10/20 02:15:47;;;;;;;12.45;11.30;;;22.90;99.90;;;;;;6012096;29;89112;-66
2022/10/20 02:18:49;;;;;;;12.05;10.95;;;22.90;99.90;;;;;;6012401;29;90178;-66
2022/10/20 02:21:52;;;;;;;12.45;11.25;;;22.90;99.90;;;;;;6011822;29;89277;-66
2022/10/20 02:24:55;;;;;;;12.07;10.98;;;22.90;99.90;;;;;;6008995;29;89114;-66
2022/10/20 02:27:58;;;;;;;12.30;11.20;;;22.90;99.90;;;;;;6029213;29;89581;-66
2022/10/20 02:31:02;;;;;;;11.75;10.55;;;22.90;99.90;;;;;;6020067;29;89099;-66
2022/10/20 02:34:04;;;;;;;11.68;10.57;;;22.90;99.90;;;;;;6016403;29;89089;-66
2022/10/20 02:37:06;;;;;;;12.18;11.07;;;22.90;99.90;;;;;;6020997;29;87940;-66
2022/10/20 02:40:09;;;;;;;12.00;10.90;;;22.90;99.90;;;;;;6019758;28;88398;-66
2022/10/20 02:43:11;;;;;;;11.77;10.68;;;22.90;99.90;;;;;;6026198;29;88990;-66
2022/10/20 02:46:15;;;;;;;11.57;10.57;;;22.90;99.90;;;;;;6021940;28;89076;-66
2022/10/20 02:49:18;;;;;;;11.73;10.63;;;22.90;99.90;;;;;;6016999;29;90035;-66
2022/10/20 02:52:20;;;;;;;11.80;10.70;;;22.90;99.90;;;;;;6014745;29;89968;-66
2022/10/20 02:55:22;;;;;;;11.10;10.05;;;22.90;99.90;;;;;;6029887;29;89205;-66
2022/10/20 02:58:24;;;;;;;11.30;10.30;;;22.80;99.90;;;;;;6032113;29;89193;-66
2022/10/20 03:01:28;;;;;;;10.88;9.90;;;22.90;99.90;;;;;;6023659;28;89477;-66
2022/10/20 03:04:30;;;;;;;11.57;10.48;;;22.90;99.90;;;;;;6023631;29;89267;-66
2022/10/20 03:07:32;;;;;;;11.40;10.30;;;22.80;99.90;;;;;;6015325;29;89417;-66
2022/10/20 03:10:36;;;;;;;11.55;10.45;;;22.80;99.90;;;;;;6017750;29;89350;-66
2022/10/20 03:13:38;;;;;;;10.38;9.45;;;22.90;99.90;;;;;;6030274;29;89152;-66
2022/10/20 03:16:41;;;;;;;11.48;10.38;;;22.90;99.90;;;;;;6023278;28;89178;-66
2022/10/20 03:19:43;;;;;;;11.07;10.07;;;22.80;99.90;;;;;;6014268;29;90084;-66
2022/10/20 03:22:45;;;;;;;11.70;10.57;;;22.80;99.90;;;;;;6014085;29;89112;-66
2022/10/20 03:25:47;;;;;;;10.85;9.85;;;22.80;99.90;;;;;;6016507;29;87908;-66
2022/10/20 03:28:49;;;;;;;10.63;9.63;;;22.90;99.90;;;;;;6028477;29;89200;-66
2022/10/20 03:31:53;;;;;;;10.52;9.57;;;22.80;99.90;;;;;;6017393;28;89137;-66
2022/10/20 03:34:55;;;;;;;10.85;9.85;;;22.90;99.90;;;;;;6025813;28;89495;-66
2022/10/20 03:37:57;;;;;;;10.23;9.32;;;22.90;99.90;;;;;;6027224;29;89439;-66
2022/10/20 03:40:59;;;;;;;11.18;10.07;;;22.90;99.90;;;;;;6016363;29;88719;-66
2022/10/20 03:44:01;;;;;;;10.57;9.57;;;22.90;99.90;;;;;;6016472;29;89208;-65
2022/10/20 03:47:04;;;;;;;10.00;9.10;;;22.90;99.90;;;;;;6015117;29;89075;-66
2022/10/20 03:50:07;;;;;;;10.95;9.95;;;22.90;99.90;;;;;;6017064;29;89942;-66
2022/10/20 03:53:12;;;;;;;10.57;9.57;;;22.90;99.90;;;;;;6016051;29;89017;-66
2022/10/20 03:56:17;;;;;;;10.45;9.45;;;22.90;99.90;;;;;;6015225;29;89131;-66
2022/10/20 03:59:19;;;;;;;10.35;9.45;;;22.90;99.90;;;;;;6015110;29;89335;-66
2022/10/20 04:02:32;;;;;;;9.80;8.85;;;22.90;99.90;;;;;;6022858;29;89390;-66
2022/10/20 04:05:34;;;;;;;10.68;9.68;;;22.90;99.90;;;;;;6018655;28;89125;-66
2022/10/20 04:08:36;;;;;;;10.30;9.30;;;23.00;99.90;;;;;;6015138;29;89175;-66
2022/10/20 04:11:39;;;;;;;10.45;9.45;;;23.00;99.90;;;;;;6014317;29;88572;-66
2022/10/20 04:14:41;;;;;;;9.90;9.00;;;22.90;99.90;;;;;;6009449;29;88448;-66
2022/10/20 04:17:44;;;;;;;9.68;8.77;;;23.00;99.90;;;;;;6016353;29;88287;-66
2022/10/20 04:20:48;;;;;;;9.80;8.90;;;22.90;99.90;;;;;;6014956;29;90101;-66
2022/10/20 04:23:50;;;;;;;9.07;8.27;;;23.00;99.90;;;;;;6016369;29;89228;-66
2022/10/20 04:26:52;;;;;;;9.57;8.63;;;23.00;99.90;;;;;;6014476;29;89127;-66
2022/10/20 04:29:54;;;;;;;9.68;8.77;;;22.90;99.90;;;;;;6015436;29;89189;-66
2022/10/20 04:32:57;;;;;;;8.63;7.90;;;23.00;99.90;;;;;;6019202;29;89103;-66
2022/10/20 04:36:01;;;;;;;8.60;7.80;;;23.00;99.90;;;;;;6020597;29;87981;-66
2022/10/20 04:39:05;;;;;;;9.63;8.73;;;23.00;99.90;;;;;;6027720;29;89137;-66
2022/10/20 04:42:07;;;;;;;9.48;8.57;;;23.00;99.90;;;;;;6001201;29;89517;-66
2022/10/20 04:45:10;;;;;;;8.77;7.97;;;23.00;99.90;;;;;;6013639;29;89161;-66
2022/10/20 04:48:13;;;;;;;8.68;7.88;;;23.00;99.90;;;;;;6014951;29;89141;-66
2022/10/20 04:51:16;;;;;;;8.85;8.00;;;23.10;99.90;;;;;;6015465;29;90099;-66
2022/10/20 04:54:18;;;;;;;8.80;8.00;;;23.00;99.90;;;;;;6014774;29;89138;-66
2022/10/20 04:57:20;;;;;;;8.35;7.65;;;23.00;99.90;;;;;;6016079;29;89116;-66
2022/10/20 05:00:22;;;;;;;8.23;7.53;;;23.00;99.90;;;;;;6015028;29;89063;-67
2022/10/20 05:03:26;;;;;;;8.45;7.65;;;23.00;99.90;;;;;;6014465;29;89132;-66
2022/10/20 05:06:29;;;;;;;7.85;7.15;;;23.00;99.90;;;;;;6013563;29;90821;-66
2022/10/20 05:09:32;;;;;;;8.82;7.93;;;23.00;99.90;;;;;;6014488;29;88058;-66
2022/10/20 05:12:34;;;;;;;7.82;7.13;;;23.00;99.90;;;;;;6014701;29;88401;-66
2022/10/20 05:15:36;;;;;;;7.53;6.85;;;23.00;99.90;;;;;;6014645;29;89139;-66
2022/10/20 05:18:40;;;;;;;8.23;7.43;;;23.00;99.90;;;;;;6014454;29;89464;-66
2022/10/20 05:21:42;;;;;;;7.47;6.85;;;23.10;99.90;;;;;;6015410;29;90475;-66
2022/10/20 05:24:44;;;;;;;8.07;7.28;;;23.10;99.90;;;;;;6012224;29;89119;-67
2022/10/20 05:27:46;;;;;;;7.40;6.75;;;23.10;99.90;;;;;;6013108;29;89312;-66
2022/10/20 05:30:48;;;;;;;7.75;7.05;;;23.10;99.90;;;;;;6015644;29;89067;-66
2022/10/20 05:33:54;;;;;;;7.57;6.88;;;23.10;99.90;;;;;;6024743;29;89334;-67
2022/10/20 05:36:56;;;;;;;7.63;6.93;;;23.10;99.90;;;;;;6019991;29;89118;-66
2022/10/20 05:39:58;;;;;;;7.50;6.80;;;23.10;99.90;;;;;;6016055;29;89131;-66
2022/10/20 05:43:00;;;;;;;7.72;7.03;;;23.10;99.90;;;;;;6014653;29;87273;-66
2022/10/20 05:46:03;;;;;;;7.53;6.82;;;23.10;99.90;;;;;;6014196;29;88994;-66
2022/10/20 05:49:07;;;;;;;6.90;6.20;;;23.10;99.90;;;;;;6014425;29;88877;-66
2022/10/20 05:52:09;;;;;;;7.10;6.47;;;23.10;99.90;;;;;;6013743;29;90136;-66
2022/10/20 05:55:11;;;;;;;7.05;6.45;;;23.10;99.90;;;;;;6013962;29;89408;-66
2022/10/20 05:58:13;;;;;;;7.30;6.60;;;23.10;99.90;;;;;;6014967;29;89122;-66
2022/10/20 06:01:18;;;;;;;6.95;6.03;;;23.10;99.90;;;;;;6012794;29;88279;-66
2022/10/20 06:04:23;;;;;;;7.10;6.40;;;23.10;99.90;;;;;;6012957;29;89181;-66
2022/10/20 06:07:25;;;;;;;6.28;5.68;;;23.10;99.90;;;;;;6013473;29;89184;-67
2022/10/20 06:10:27;;;;;;;6.88;6.28;;;23.10;99.90;;;;;;6013929;29;87979;-66
2022/10/20 06:13:30;;;;;;;7.13;6.43;;;23.10;99.90;;;;;;6014298;29;88359;-67
2022/10/20 06:16:32;;;;;;;6.72;6.13;;;23.10;99.90;;;;;;6013340;29;89056;-66
2022/10/20 06:19:36;;;;;;;6.40;5.80;;;23.10;99.90;;;;;;6016413;29;89901;-66
2022/10/20 06:22:37;;;;;;;6.50;5.90;;;23.10;99.90;;;;;;6016866;29;90137;-66
2022/10/20 06:25:39;;;;;;;6.65;6.05;;;23.10;99.90;;;;;;6017829;29;89418;-67
2022/10/20 06:28:41;;;;;;;5.97;5.47;;;23.10;99.90;;;;;;6016480;29;89291;-66
2022/10/20 06:31:45;;;;;;;6.40;5.80;;;23.10;99.90;;;;;;6017554;29;89226;-66
2022/10/20 06:34:49;;;;;;;6.07;5.57;;;23.10;99.90;;;;;;6027830;28;89066;-66
2022/10/20 06:37:51;;;;;;;6.38;5.72;;;23.20;99.90;;;;;;6022989;29;89090;-66
2022/10/20 06:40:53;;;;;;;6.95;6.25;;;23.20;99.90;;;;;;6016658;29;89046;-66
2022/10/20 06:43:58;;;;;;;5.78;5.28;;;23.20;99.90;;;;;;6018495;29;87213;-67
2022/10/20 06:47:00;;;;;;;5.95;5.45;;;23.20;99.90;;;;;;6017598;29;88624;-66
2022/10/20 06:50:03;;;;;;;5.90;5.40;;;23.20;99.90;;;;;;6016887;29;89033;-66
2022/10/20 06:53:05;;;;;;;5.70;5.20;;;23.20;99.90;;;;;;6009642;29;90159;-66
2022/10/20 06:56:10;;;;;;;5.80;5.30;;;23.20;99.90;;;;;;6017174;29;89278;-66
2022/10/20 06:59:12;;;;;;;5.53;5.03;;;23.20;99.90;;;;;;6017900;29;89119;-66
2022/10/20 07:02:16;;;;;;;5.72;5.20;;;23.20;99.90;;;;;;6015962;29;89401;-66
2022/10/20 07:05:20;;;;;;;6.10;5.50;;;23.20;99.90;;;;;;6016715;29;89100;-66
2022/10/20 07:08:23;;;;;;;5.90;5.30;;;23.20;99.90;;;;;;6016944;29;88378;-66
2022/10/20 07:11:27;;;;;;;5.45;4.95;;;23.20;99.90;;;;;;6017171;29;89215;-66
2022/10/20 07:14:29;;;;;;;5.82;5.32;;;23.20;99.90;;;;;;6017177;29;88455;-66
2022/10/20 07:17:31;;;;;;;5.00;4.55;;;23.20;99.90;;;;;;6016802;29;89209;-66
2022/10/20 07:20:34;;;;;;;5.45;4.95;;;23.30;99.90;;;;;;6014592;29;89163;-67
2022/10/20 07:23:36;;;;;;;5.38;4.88;;;23.30;99.90;;;;;;6015973;29;90057;-66
2022/10/20 07:26:41;;;;;;;5.10;4.60;;;23.30;99.90;;;;;;6017258;29;89194;-66
2022/10/20 07:29:43;;;;;;;5.05;4.55;;;23.30;99.90;;;;;;6015951;29;88065;-66
2022/10/20 07:32:45;;;;;;;5.15;4.68;;;23.30;99.90;;;;;;6019188;29;88011;-66
2022/10/20 07:35:49;;;;;;;4.80;4.40;;;23.30;99.90;;;;;;6022964;29;87957;-66
2022/10/20 07:39:19;;;;;;;5.35;4.85;;;23.30;99.90;;;;;;6021106;29;89062;-66
2022/10/20 07:42:21;;;;;;;4.82;4.43;;;23.30;99.90;;;;;;6013975;29;89192;-66
2022/10/20 07:45:23;;;;;;;4.72;4.32;;;23.30;99.90;;;;;;6016748;29;87167;-66
2022/10/20 07:48:25;;;;;;;5.40;4.90;;;23.30;99.90;;;;;;6016165;29;88825;-66
2022/10/20 07:51:31;;;;;;;5.05;4.55;;;23.30;99.90;;;;;;6014966;29;89449;-66
2022/10/20 07:54:33;;;;;;;5.28;4.78;;;23.30;99.90;;;;;;6014579;29;90049;-66
2022/10/20 07:57:35;;;;;;;4.80;4.30;;;23.30;99.90;;;;;;6015292;29;89128;-66
2022/10/20 08:00:38;;;;;;;4.70;4.30;;;23.30;99.90;;;;;;6016168;29;89155;-66
2022/10/20 08:03:39;;;;;;;4.93;4.47;;;23.30;99.90;;;;;;6015644;29;89224;-66
2022/10/20 08:06:45;;;;;;;4.60;4.20;;;23.30;99.90;;;;;;6016227;29;88482;-66
2022/10/20 08:09:47;;;;;;;4.65;4.25;;;23.40;99.90;;;;;;6015629;29;87918;-66
2022/10/20 08:12:49;;;;;;;4.20;3.80;;;23.40;99.90;;;;;;6015747;29;87999;-66
2022/10/20 08:15:51;;;;;;;4.60;4.20;;;23.40;99.90;;;;;;6015691;29;88375;-66
2022/10/20 08:18:53;;;;;;;5.00;4.47;;;23.40;99.90;;;;;;6014919;29;88943;-66
2022/10/20 08:21:56;;;;;;;4.32;3.92;;;23.40;99.90;;;;;;6014624;29;89345;-66
2022/10/20 08:24:58;;;;;;;4.28;3.88;;;23.40;99.90;;;;;;6016487;29;90106;-66
2022/10/20 08:28:00;;;;;;;3.97;3.67;;;23.40;99.90;;;;;;6016405;29;89108;-66
2022/10/20 08:31:03;;;;;;;4.15;3.80;;;23.40;99.90;;;;;;6015414;29;89043;-66
2022/10/20 08:34:06;;;;;;;4.30;3.67;;;23.40;99.90;;;;;;6025535;29;89080;-66
2022/10/20 08:37:10;;;;;;;3.90;3.60;;;23.40;99.90;;;;;;6024343;29;88147;-66
2022/10/20 08:40:16;;;;;;;4.18;3.80;;;23.40;99.90;;;;;;6017276;29;89484;-66
2022/10/20 08:43:20;;;;;;;3.90;3.60;;;23.40;99.90;;;;;;6013916;29;89217;-66
2022/10/20 08:46:29;;;;;;;3.47;3.17;;;23.50;99.90;;;;;;6016027;29;88375;-66
2022/10/20 08:49:33;;;;;;;4.20;3.80;;;23.50;99.90;;;;;;6015125;29;89128;-66
2022/10/20 08:52:40;;;;;;;4.07;3.67;;;23.50;99.90;;;;;;6014928;29;88008;-65
2022/10/20 08:55:44;;;;;;;4.00;3.60;;;23.50;99.90;;;;;;6014503;29;90271;-66
2022/10/20 08:58:46;;;;;;;4.25;3.70;;;23.50;99.90;;;;;;6015335;29;87984;-66
2022/10/20 09:01:48;;;;;;;4.28;3.88;;;23.50;99.90;;;;;;6015368;29;89084;-65
2022/10/20 09:04:53;;;;;;;3.95;3.55;;;23.50;99.90;;;;;;6016596;29;88310;-66
2022/10/20 09:07:57;;;;;;;3.78;3.40;;;23.50;99.90;;;;;;6013071;29;89325;-66
2022/10/20 09:11:01;;;;;;;3.38;3.08;;;23.50;99.90;;;;;;6015097;29;89541;-66
2022/10/20 09:14:03;;;;;;;3.63;3.33;;;23.50;99.90;;;;;;6014903;29;89133;-66
2022/10/20 09:17:12;;;;;;;3.80;3.50;;;23.50;99.90;;;;;;6015511;29;87273;-65
2022/10/20 09:20:21;;;;;;;3.72;3.42;;;23.50;99.90;;;;;;6014287;29;89304;-66
2022/10/20 09:23:30;;;;;;;3.75;3.45;;;23.50;99.90;;;;;;6015397;29;88984;-66
2022/10/20 09:26:36;;;;;;;3.65;3.35;;;23.50;99.90;;;;;;6002651;29;90097;-66
2022/10/20 09:29:39;;;;;;;3.70;3.40;;;23.50;99.90;;;;;;6014392;29;89047;-65
2022/10/20 09:32:41;;;;;;;3.63;3.33;;;23.60;99.90;;;;;;6016657;29;88201;-66
2022/10/20 09:35:47;;;;;;;3.67;3.38;;;23.50;99.90;;;;;;6021807;29;89126;-66
2022/10/20 09:38:52;;;;;;;3.72;3.30;;;23.50;99.90;;;;;;6025657;29;89100;-66
2022/10/20 09:42:02;;;;;;;4.13;3.28;;;23.50;99.90;;;;;;6014536;29;89762;-66
2022/10/20 09:45:07;;;;;;;3.47;3.17;;;23.50;99.90;;;;;;6014794;29;89049;-66
2022/10/20 09:48:22;;;;;;;3.35;3.05;;;23.50;99.90;;;;;;6014707;29;87402;-66
2022/10/20 09:51:25;;;;;;;3.30;3.00;;;23.50;99.90;;;;;;6007613;29;89130;-66
2022/10/20 09:54:29;;;;;;;3.60;3.17;;;23.60;99.90;;;;;;6008708;29;89101;-66
2022/10/20 09:57:32;;;;;;;3.30;3.00;;;23.50;99.90;;;;;;6014057;29;90186;-66
2022/10/20 10:00:35;;;;;;;3.33;3.03;;;23.50;99.90;;;;;;6013570;29;89210;-66
2022/10/20 10:03:43;;;;;;;3.65;3.33;;;23.60;99.90;;;;;;6014036;29;89243;-66
2022/10/20 10:06:45;;;;;;;3.75;3.30;;;23.60;99.90;;;;;;6013181;29;89107;-66
2022/10/20 10:09:56;;;;;;;3.13;2.83;;;23.60;99.90;;;;;;6014246;29;89051;-66
2022/10/20 10:13:02;;;;;;;3.28;2.97;;;23.60;99.90;;;;;;6003912;29;89133;-66
2022/10/20 10:16:07;;;;;;;3.35;3.05;;;23.60;99.90;;;;;;6014147;29;89576;-66
2022/10/20 10:19:17;;;;;;;3.20;2.90;;;23.60;99.90;;;;;;6014032;29;88299;-66
2022/10/20 10:22:19;;;;;;;3.30;3.00;;;23.60;99.90;;;;;;6011629;29;88402;-66
2022/10/20 10:25:27;;;;;;;3.20;2.90;;;23.60;99.90;;;;;;6014962;29;88031;-66
2022/10/20 10:28:33;;;;;;;3.38;3.08;;;23.60;99.90;;;;;;6010148;29;90014;-66
2022/10/20 10:31:35;;;;;;;3.30;3.00;;;23.60;99.90;;;;;;6013579;29;89136;-66
2022/10/20 10:34:56;;;;;;;3.10;2.80;;;23.60;99.90;;;;;;6023255;29;89461;-66
2022/10/20 10:37:59;;;;;;;3.10;2.80;;;23.60;99.90;;;;;;6023606;29;89040;-66
2022/10/20 10:41:12;;;;;;;3.95;3.33;;;23.60;99.90;;;;;;6012910;29;89069;-66
2022/10/20 10:44:21;;;;;;;3.00;2.70;;;23.60;99.90;;;;;;6014174;29;89186;-66
2022/10/20 10:47:48;;;;;;;3.00;2.70;;;23.60;99.90;;;;;;6013043;29;88002;-66
2022/10/20 10:50:54;;;;;;;3.20;2.90;;;23.60;99.90;;;;;;6014586;29;89607;-66
2022/10/20 10:54:11;;;;;;;3.33;3.00;;;23.70;99.90;;;;;;6012982;29;89102;-66
2022/10/20 10:57:20;;;;;;;2.60;2.40;;;23.60;99.90;;;;;;6013540;29;88092;-66
2022/10/20 11:00:36;;;;;;;3.22;2.70;;;23.60;99.90;;;;;;6012090;29;90068;-66
2022/10/20 11:04:05;;;;;;;3.58;3.10;;;23.60;99.90;;;;;;6011961;29;89099;-66
2022/10/20 11:07:11;;;;;;;2.60;2.40;;;23.70;99.90;;;;;;6013489;29;87913;-66
2022/10/20 11:10:22;;;;;;;3.13;2.83;;;23.60;99.90;;;;;;6016429;29;89403;-66
2022/10/20 11:13:32;;;;;;;3.05;2.75;;;23.70;99.90;;;;;;6016774;29;89222;-66
2022/10/20 11:16:44;;;;;;;3.65;2.97;;;23.70;99.90;;;;;;6016586;29;87982;-66
2022/10/20 11:20:11;;;;;;;3.15;2.85;;;23.70;99.90;;;;;;6016730;29;89464;-67
2022/10/20 11:23:51;;;;;;;3.10;2.80;;;23.60;99.90;;;;;;6017654;29;88398;-66
2022/10/20 11:27:07;;;;;;;2.65;2.45;;;23.60;99.90;;;;;;6014276;29;89158;-66
2022/10/20 11:30:18;;;;;;;3.80;2.70;;;23.70;99.90;;;;;;6016055;29;89067;-66
2022/10/20 11:33:27;;;;;;;2.90;2.70;;;23.70;99.90;;;;;;6024580;28;90033;-66
2022/10/20 11:36:35;;;;;;;2.90;2.70;;;23.70;99.90;;;;;;6019960;29;87964;-66
2022/10/20 11:39:42;;;;;;;2.67;2.47;;;23.70;99.90;;;;;;6024487;28;87953;-66
2022/10/20 11:42:51;;;;;;;2.60;2.40;;;23.70;99.90;;;;;;6016378;29;90078;-66
2022/10/20 11:46:00;;;;;;;2.78;2.55;;;23.70;99.90;;;;;;6014994;29;89255;-66
2022/10/20 11:49:03;;;;;;;2.95;2.63;;;23.70;99.90;;;;;;6016149;29;89115;-66
2022/10/20 11:52:52;;;;;;;2.60;2.40;;;23.70;99.90;;;;;;6006765;29;88826;-66
2022/10/20 11:56:15;;;;;;;2.83;2.30;;;23.70;99.90;;;;;;5988033;29;88445;-66
2022/10/20 11:59:40;;;;;;;2.50;2.30;;;23.70;99.90;;;;;;6016331;29;89073;-66
2022/10/20 12:03:01;;;;;;;2.65;2.45;;;23.70;99.90;;;;;;6015042;29;88051;-66
2022/10/20 12:06:37;;;;;;;2.50;2.30;;;23.70;99.90;;;;;;6013903;29;90141;-66
2022/10/20 12:10:06;;;;;;;2.40;2.20;;;23.70;99.90;;;;;;6015933;29;89176;-66
2022/10/20 12:13:24;;;;;;;2.45;2.20;;;23.70;99.90;;;;;;6005721;29;88996;-66
2022/10/20 12:17:12;;;;;;;2.63;2.42;;;23.70;99.90;;;;;;6005320;29;89280;-66
2022/10/20 12:21:00;;;;;;;3.08;2.60;;;23.70;99.90;;;;;;6014080;29;89090;-66
2022/10/20 12:24:28;;;;;;;2.65;2.45;;;23.70;99.90;;;;;;6015182;29;89134;-66
2022/10/20 12:27:31;;;;;;;2.30;2.10;;;23.70;99.90;;;;;;6015518;29;88024;-66
2022/10/20 12:30:44;;;;;;;2.42;2.22;;;23.70;99.90;;;;;;6015688;29;88381;-66
2022/10/20 12:34:02;;;;;;;2.83;2.38;;;23.70;99.90;;;;;;6025237;28;88993;-66
2022/10/20 12:37:07;;;;;;;2.45;2.25;;;23.70;99.90;;;;;;6023877;29;89087;-66
2022/10/20 12:40:26;;;;;;;2.60;2.40;;;23.70;99.90;;;;;;6016850;28;90018;-66
2022/10/20 12:43:32;;;;;;;2.35;2.10;;;23.70;99.90;;;;;;6014436;29;89143;-66
2022/10/20 12:46:41;;;;;;;2.30;2.10;;;23.70;99.90;;;;;;6015037;29;89042;-66
2022/10/20 12:49:51;;;;;;;2.60;2.40;;;23.70;99.90;;;;;;6013762;29;89105;-66
2022/10/20 12:52:54;;;;;;;2.28;2.08;;;23.70;99.90;;;;;;6015359;29;89104;-66
2022/10/20 12:56:00;;;;;;;2.40;2.20;;;23.70;99.90;;;;;;6014650;29;89899;-66
2022/10/20 12:59:33;;;;;;;2.58;2.35;;;23.70;99.90;;;;;;6014865;29;89354;-67
2022/10/20 13:02:51;;;;;;;2.33;2.13;;;23.70;99.90;;;;;;6014144;29;88447;-66
2022/10/20 13:05:53;;;;;;;2.53;2.33;;;23.70;99.90;;;;;;6013719;29;89459;-66
2022/10/20 13:09:22;;;;;;;2.20;2.00;;;23.70;99.90;;;;;;6014809;29;89406;-66
2022/10/20 13:12:29;;;;;;;2.50;2.30;;;23.70;99.90;;;;;;6012031;29;90107;-66
2022/10/20 13:15:34;;;;;;;2.50;2.10;;;23.70;99.90;;;;;;6014391;29;89177;-66
2022/10/20 13:18:42;;;;;;;2.85;2.20;;;23.70;99.90;;;;;;6014417;29;89087;-66
2022/10/20 13:21:45;;;;;;;2.53;2.33;;;23.70;99.90;;;;;;6015333;29;89108;-66
2022/10/20 13:24:47;;;;;;;2.85;2.40;;;23.70;99.90;;;;;;6012691;29;89081;-66
2022/10/20 13:27:51;;;;;;;2.45;2.25;;;23.70;99.90;;;;;;6014182;29;88194;-66
2022/10/20 13:31:09;;;;;;;2.33;2.13;;;23.70;99.90;;;;;;6015095;29;88038;-66
2022/10/20 13:34:16;;;;;;;2.30;2.10;;;23.70;99.90;;;;;;6021494;29;88419;-66
2022/10/20 13:37:43;;;;;;;3.40;2.00;;;23.70;99.90;;;;;;6023669;29;89359;-66
2022/10/20 13:40:51;;;;;;;2.30;2.10;;;23.70;99.90;;;;;;5999515;29;89070;-66
2022/10/20 13:44:02;;;;;;;2.50;2.30;;;23.70;99.90;;;;;;6003716;29;90332;-66
2022/10/20 13:47:18;;;;;;;2.25;2.05;;;23.70;99.90;;;;;;6014304;29;89105;-66
2022/10/20 13:50:23;;;;;;;2.30;2.10;;;23.70;99.90;;;;;;6012425;29;89128;-67
2022/10/20 13:53:29;;;;;;;2.50;2.30;;;23.70;99.90;;;;;;6014784;29;90202;-67
2022/10/20 13:56:35;;;;;;;2.30;2.10;;;23.70;99.90;;;;;;6013912;29;89211;-66
2022/10/20 13:59:54;;;;;;;2.45;2.25;;;23.70;99.90;;;;;;6014251;29;89104;-66
2022/10/20 14:03:00;;;;;;;2.17;1.98;;;23.70;99.90;;;;;;6013634;29;88006;-66
2022/10/20 14:06:02;;;;;;;2.55;2.08;;;23.70;99.90;;;;;;6014350;29;87343;-67
2022/10/20 14:09:17;;;;;;;2.20;2.00;;;23.70;99.90;;;;;;6011434;29;89056;-66
2022/10/20 14:12:24;;;;;;;2.30;2.10;;;23.70;99.90;;;;;;6014195;29;88272;-67
2022/10/20 14:15:31;;;;;;;2.25;2.05;;;23.70;99.90;;;;;;6013579;29;90022;-66
2022/10/20 14:18:38;;;;;;;2.30;2.10;;;23.70;99.90;;;;;;6013843;29;89186;-66
2022/10/20 14:21:42;;;;;;;2.20;2.03;;;23.70;99.90;;;;;;6013705;29;89169;-67
2022/10/20 14:24:45;;;;;;;2.38;2.17;;;23.70;99.90;;;;;;6013614;29;88033;-66
2022/10/20 14:27:50;;;;;;;2.40;2.10;;;23.60;99.90;;;;;;6013956;29;89126;-66
2022/10/20 14:30:53;;;;;;;2.03;1.92;;;23.70;99.90;;;;;;6012894;29;89151;-66
2022/10/20 14:33:55;;;;;;;2.72;2.40;;;23.70;99.90;;;;;;6024125;28;89070;-67
2022/10/20 14:36:58;;;;;;;2.50;2.30;;;23.60;99.90;;;;;;6017980;29;87209;-66
2022/10/20 14:40:02;;;;;;;2.22;2.03;;;23.70;99.90;;;;;;6014114;29;89256;-67
2022/10/20 14:43:07;;;;;;;2.15;1.95;;;23.70;99.90;;;;;;6017861;29;89056;-67
2022/10/20 14:46:12;;;;;;;2.50;2.30;;;23.70;99.90;;;;;;6015105;29;90754;-67
2022/10/20 14:49:17;;;;;;;2.45;2.17;;;23.70;99.90;;;;;;6016931;29;89143;-67
2022/10/20 14:52:22;;;;;;;2.42;2.10;;;23.70;99.90;;;;;;6016852;29;89794;-67
2022/10/20 14:55:31;;;;;;;2.33;2.13;;;23.70;99.90;;;;;;6017273;29;89134;-67
2022/10/20 14:58:38;;;;;;;2.20;2.00;;;23.70;99.90;;;;;;6016978;29;89391;-67
2022/10/20 15:01:55;;;;;;;2.20;2.00;;;23.70;99.90;;;;;;6017571;29;89440;-66
2022/10/20 15:05:17;;;;;;;2.38;2.17;;;23.60;99.90;;;;;;6017086;29;89416;-67
2022/10/20 15:08:25;;;;;;;2.15;1.95;;;23.70;99.90;;;;;;6017099;29;88394;-67
2022/10/20 15:11:30;;;;;;;2.45;2.10;;;23.70;99.90;;;;;;6007352;29;89062;-67
2022/10/20 15:14:32;;;;;;;2.53;2.33;;;23.70;99.90;;;;;;6016265;29;89086;-67
2022/10/20 15:17:38;;;;;;;2.28;2.08;;;23.70;99.90;;;;;;6015897;29;89994;-66
2022/10/20 15:20:41;;;;;;;2.38;2.17;;;23.70;99.90;;;;;;6016544;29;89103;-67
2022/10/20 15:23:43;;;;;;;2.10;1.90;;;23.60;99.90;;;;;;6018039;29;89139;-66
2022/10/20 15:26:46;;;;;;;2.30;2.10;;;23.60;99.90;;;;;;6017056;29;89172;-67
2022/10/20 15:29:50;;;;;;;1.98;1.88;;;23.70;99.90;;;;;;6016130;29;87965;-66
2022/10/20 15:32:54;;;;;;;2.35;2.00;;;23.60;99.90;;;;;;6019480;29;88754;-66
2022/10/20 15:35:59;;;;;;;3.60;2.75;;;23.60;99.90;;;;;;6014782;29;89210;-66
2022/10/20 15:39:01;;;;;;;2.13;2.03;;;23.60;99.90;;;;;;6027973;29;87333;-66
2022/10/20 15:42:09;;;;;;;2.30;2.10;;;23.60;99.90;;;;;;6016165;29;89030;-66
2022/10/20 15:45:16;;;;;;;2.42;2.20;;;23.60;99.90;;;;;;6003542;29;89126;-66
2022/10/20 15:48:20;;;;;;;2.22;2.05;;;23.60;99.90;;;;;;6014152;29;89989;-66
2022/10/20 15:51:27;;;;;;;2.42;2.15;;;23.60;99.90;;;;;;6016251;29;89087;-67
2022/10/20 15:54:29;;;;;;;2.10;1.90;;;23.70;99.90;;;;;;6016578;29;88832;-66
2022/10/20 15:57:31;;;;;;;2.47;2.28;;;23.60;99.90;;;;;;6016168;29;89481;-66
2022/10/20 16:00:33;;;;;;;2.30;2.10;;;23.60;99.90;;;;;;6015626;29;88049;-67
2022/10/20 16:03:39;;;;;;;2.35;2.15;;;23.60;99.90;;;;;;6016121;29;89205;-66
2022/10/20 16:06:42;;;;;;;2.38;2.17;;;23.60;99.90;;;;;;6016041;29;87735;-67